Terminal Aerodrome Forecast
Issued by NWS

Home | Current Version | Previous Version | Text Only | Print | Product List | Glossary On
Versions: 1 2 3 4 5 6 7 8 9 10 11 12 13 14 15 16
343
FTUS41 KBTV 252334
TAFSLK
TAF
KSLK 252334Z 2600/2624 13006KT P6SM VCSH OVC050
     FM260300 12007KT P6SM -RA OVC030
     FM260800 10004KT 5SM BR OVC030
     FM261400 10005KT P6SM OVC030
     FM262000 14005KT P6SM SCT040=

USA.gov is the U.S. government's official web portal to all federal, state and local government web resources and services.